sensor_id;sensor_type;location;lat;lon;timestamp;pressure;altitude;pressure_sealevel;temperature;humidity
68941;BME280;55982;51.476;7.552;2023-02-18T00:00:34;100346.63;;;10.18;100.00
68941;BME280;55982;51.476;7.552;2023-02-18T00:02:59;100337.84;;;10.19;100.00
68941;BME280;55982;51.476;7.552;2023-02-18T00:05:24;100334.34;;;10.20;100.00
68941;BME280;55982;51.476;7.552;2023-02-18T00:07:50;100342.94;;;10.25;100.00
68941;BME280;55982;51.476;7.552;2023-02-18T00:10:15;100341.16;;;10.27;100.00
68941;BME280;55982;51.476;7.552;2023-02-18T00:12:41;100342.94;;;10.25;100.00
68941;BME280;55982;51.476;7.552;2023-02-18T00:15:06;100337.63;;;10.28;100.00
68941;BME280;55982;51.476;7.552;2023-02-18T00:17:32;100334.19;;;10.26;100.00
68941;BME280;55982;51.476;7.552;2023-02-18T00:19:57;100330.75;;;10.24;100.00
68941;BME280;55982;51.476;7.552;2023-02-18T00:22:22;100330.84;;;10.21;100.00
68941;BME280;55982;51.476;7.552;2023-02-18T00:24:48;100337.72;;;10.25;100.00
68941;BME280;55982;51.476;7.552;2023-02-18T00:27:13;100333.28;;;10.29;100.00
68941;BME280;55982;51.476;7.552;2023-02-18T00:29:38;100337.72;;;10.25;100.00
68941;BME280;55982;51.476;7.552;2023-02-18T00:32:04;100332.50;;;10.25;100.00
68941;BME280;55982;51.476;7.552;2023-02-18T00:34:29;100338.59;;;10.26;100.00
68941;BME280;55982;51.476;7.552;2023-02-18T00:36:54;100333.31;;;10.27;100.00
68941;BME280;55982;51.476;7.552;2023-02-18T00:39:19;100326.28;;;10.29;100.00
68941;BME280;55982;51.476;7.552;2023-02-18T00:41:45;100317.63;;;10.27;100.00
68941;BME280;55982;51.476;7.552;2023-02-18T00:44:10;100320.09;;;10.33;100.00
68941;BME280;55982;51.476;7.552;2023-02-18T00:46:36;100306.19;;;10.31;100.00
68941;BME280;55982;51.476;7.552;2023-02-18T00:49:02;100307.06;;;10.30;100.00
68941;BME280;55982;51.476;7.552;2023-02-18T00:51:27;100309.69;;;10.30;100.00
68941;BME280;55982;51.476;7.552;2023-02-18T00:53:53;100295.78;;;10.28;100.00
68941;BME280;55982;51.476;7.552;2023-02-18T00:56:18;100304.47;;;10.30;100.00
68941;BME280;55982;51.476;7.552;2023-02-18T00:58:43;100294.97;;;10.28;100.00
68941;BME280;55982;51.476;7.552;2023-02-18T01:01:09;100306.25;;;10.30;100.00
68941;BME280;55982;51.476;7.552;2023-02-18T01:03:35;100304.47;;;10.30;100.00
68941;BME280;55982;51.476;7.552;2023-02-18T01:06:00;100299.22;;;10.30;100.00
68941;BME280;55982;51.476;7.552;2023-02-18T01:08:25;100292.31;;;10.29;100.00
68941;BME280;55982;51.476;7.552;2023-02-18T01:10:52;100286.97;;;10.32;100.00
68941;BME280;55982;51.476;7.552;2023-02-18T01:13:17;100305.28;;;10.32;100.00
68941;BME280;55982;51.476;7.552;2023-02-18T01:15:43;100297.44;;;10.32;100.00
68941;BME280;55982;51.476;7.552;2023-02-18T01:18:10;100292.22;;;10.32;100.00
68941;BME280;55982;51.476;7.552;2023-02-18T01:20:36;100304.47;;;10.30;100.00
68941;BME280;55982;51.476;7.552;2023-02-18T01:23:02;100293.13;;;10.31;100.00
68941;BME280;55982;51.476;7.552;2023-02-18T01:25:27;100300.09;;;10.31;100.00
68941;BME280;55982;51.476;7.552;2023-02-18T01:27:53;100306.25;;;10.28;100.00
68941;BME280;55982;51.476;7.552;2023-02-18T01:32:43;100296.75;;;10.26;100.00
68941;BME280;55982;51.476;7.552;2023-02-18T01:35:10;100298.56;;;10.22;100.00
68941;BME280;55982;51.476;7.552;2023-02-18T01:37:35;100289.94;;;10.19;100.00
68941;BME280;55982;51.476;7.552;2023-02-18T01:40:00;100288.91;;;10.24;100.00
68941;BME280;55982;51.476;7.552;2023-02-18T01:42:26;100289.00;;;10.21;100.00
68941;BME280;55982;51.476;7.552;2023-02-18T01:44:52;100282.03;;;10.20;100.00
68941;BME280;55982;51.476;7.552;2023-02-18T01:47:17;100274.19;;;10.20;100.00
68941;BME280;55982;51.476;7.552;2023-02-18T01:49:43;100274.19;;;10.20;100.00
68941;BME280;55982;51.476;7.552;2023-02-18T01:52:28;100276.81;;;10.20;100.00
68941;BME280;55982;51.476;7.552;2023-02-18T01:54:56;100273.31;;;10.21;100.00
68941;BME280;55982;51.476;7.552;2023-02-18T01:57:23;100283.88;;;10.18;100.00
68941;BME280;55982;51.476;7.552;2023-02-18T01:59:55;100288.22;;;10.18;100.00
68941;BME280;55982;51.476;7.552;2023-02-18T02:02:23;100276.91;;;10.17;100.00
68941;BME280;55982;51.476;7.552;2023-02-18T02:04:49;100276.91;;;10.17;100.00
68941;BME280;55982;51.476;7.552;2023-02-18T02:07:14;100263.81;;;10.17;100.00
68941;BME280;55982;51.476;7.552;2023-02-18T02:09:40;100278.69;;;10.15;100.00
68941;BME280;55982;51.476;7.552;2023-02-18T02:14:40;100282.19;;;10.16;100.00
68941;BME280;55982;51.476;7.552;2023-02-18T02:22:22;100275.09;;;10.19;100.00
68941;BME280;55982;51.476;7.552;2023-02-18T02:27:22;100273.41;;;10.18;100.00
68941;BME280;55982;51.476;7.552;2023-02-18T02:32:45;100266.34;;;10.20;100.00
68941;BME280;55982;51.476;7.552;2023-02-18T02:35:22;100254.19;;;10.19;100.00
68941;BME280;55982;51.476;7.552;2023-02-18T02:37:57;100239.38;;;10.20;100.00
68941;BME280;55982;51.476;7.552;2023-02-18T02:45:32;100228.03;;;10.19;100.00
68941;BME280;55982;51.476;7.552;2023-02-18T02:48:04;100225.44;;;10.19;100.00
68941;BME280;55982;51.476;7.552;2023-02-18T02:50:39;100232.38;;;10.20;100.00
68941;BME280;55982;51.476;7.552;2023-02-18T02:53:12;100231.47;;;10.21;100.00
68941;BME280;55982;51.476;7.552;2023-02-18T02:55:38;100237.59;;;10.22;100.00
68941;BME280;55982;51.476;7.552;2023-02-18T02:58:04;100229.69;;;10.23;100.00
68941;BME280;55982;51.476;7.552;2023-02-18T03:00:32;100219.22;;;10.23;100.00
68941;BME280;55982;51.476;7.552;2023-02-18T03:11:02;100206.88;;;10.28;100.00
68941;BME280;55982;51.476;7.552;2023-02-18T03:19:00;100177.09;;;10.35;100.00
68941;BME280;55982;51.476;7.552;2023-02-18T03:21:32;100176.16;;;10.36;100.00
68941;BME280;55982;51.476;7.552;2023-02-18T03:24:06;100171.84;;;10.35;100.00
68941;BME280;55982;51.476;7.552;2023-02-18T03:26:32;100178.88;;;10.33;100.00
68941;BME280;55982;51.476;7.552;2023-02-18T03:29:01;100171.75;;;10.38;100.00
68941;BME280;55982;51.476;7.552;2023-02-18T03:31:27;100162.22;;;10.37;100.00
68941;BME280;55982;51.476;7.552;2023-02-18T03:34:04;100166.53;;;10.38;100.00
68941;BME280;55982;51.476;7.552;2023-02-18T03:36:32;100147.50;;;10.33;100.00
68941;BME280;55982;51.476;7.552;2023-02-18T03:41:26;100144.06;;;10.31;100.00
68941;BME280;55982;51.476;7.552;2023-02-18T03:43:57;100142.44;;;10.27;100.00
68941;BME280;55982;51.476;7.552;2023-02-18T03:46:24;100146.03;;;10.23;100.00
68941;BME280;55982;51.476;7.552;2023-02-18T03:48:50;100151.31;;;10.20;100.00
68941;BME280;55982;51.476;7.552;2023-02-18T03:51:15;100144.38;;;10.19;100.00
68941;BME280;55982;51.476;7.552;2023-02-18T03:53:41;100147.81;;;10.21;100.00
68941;BME280;55982;51.476;7.552;2023-02-18T03:56:06;100142.69;;;10.18;100.00
68941;BME280;55982;51.476;7.552;2023-02-18T03:58:31;100145.31;;;10.18;100.00
68941;BME280;55982;51.476;7.552;2023-02-18T04:00:57;100131.22;;;10.22;100.00
68941;BME280;55982;51.476;7.552;2023-02-18T04:03:22;100137.34;;;10.21;100.00
68941;BME280;55982;51.476;7.552;2023-02-18T04:05:47;100129.41;;;10.24;100.00
68941;BME280;55982;51.476;7.552;2023-02-18T04:08:13;100133.84;;;10.22;100.00
68941;BME280;55982;51.476;7.552;2023-02-18T04:10:38;100117.31;;;10.22;100.00
68941;BME280;55982;51.476;7.552;2023-02-18T04:13:03;100127.84;;;10.19;100.00
68941;BME280;55982;51.476;7.552;2023-02-18T04:15:29;100119.06;;;10.21;100.00
68941;BME280;55982;51.476;7.552;2023-02-18T04:17:54;100117.31;;;10.20;100.00
68941;BME280;55982;51.476;7.552;2023-02-18T04:20:19;100113.72;;;10.24;100.00
68941;BME280;55982;51.476;7.552;2023-02-18T04:22:46;100099.81;;;10.24;100.00
68941;BME280;55982;51.476;7.552;2023-02-18T04:25:11;100102.47;;;10.22;100.00
68941;BME280;55982;51.476;7.552;2023-02-18T04:27:37;100102.47;;;10.22;100.00
68941;BME280;55982;51.476;7.552;2023-02-18T04:30:03;100105.88;;;10.24;100.00
68941;BME280;55982;51.476;7.552;2023-02-18T04:32:28;100112.91;;;10.22;100.00
68941;BME280;55982;51.476;7.552;2023-02-18T04:34:53;100100.75;;;10.21;100.00
68941;BME280;55982;51.476;7.552;2023-02-18T04:37:18;100078.09;;;10.20;100.00
68941;BME280;55982;51.476;7.552;2023-02-18T04:39:44;100097.31;;;10.19;100.00
68941;BME280;55982;51.476;7.552;2023-02-18T04:42:09;100098.25;;;10.18;100.00
68941;BME280;55982;51.476;7.552;2023-02-18T04:44:35;100086.97;;;10.16;100.00
68941;BME280;55982;51.476;7.552;2023-02-18T04:47:01;100088.66;;;10.17;100.00
68941;BME280;55982;51.476;7.552;2023-02-18T04:49:26;100069.47;;;10.18;100.00
68941;BME280;55982;51.476;7.552;2023-02-18T04:51:51;100072.88;;;10.20;100.00
68941;BME280;55982;51.476;7.552;2023-02-18T04:54:16;100071.19;;;10.19;100.00
68941;BME280;55982;51.476;7.552;2023-02-18T04:56:41;100067.59;;;10.23;100.00
68941;BME280;55982;51.476;7.552;2023-02-18T04:59:07;100071.09;;;10.22;100.00
68941;BME280;55982;51.476;7.552;2023-02-18T05:01:32;100063.22;;;10.24;100.00
68941;BME280;55982;51.476;7.552;2023-02-18T05:03:57;100073.69;;;10.24;100.00
68941;BME280;55982;51.476;7.552;2023-02-18T05:06:22;100062.34;;;10.23;100.00
68941;BME280;55982;51.476;7.552;2023-02-18T05:08:48;100051.97;;;10.20;100.00
68941;BME280;55982;51.476;7.552;2023-02-18T05:11:13;100047.69;;;10.18;100.00
68941;BME280;55982;51.476;7.552;2023-02-18T05:13:38;100046.94;;;10.14;100.00
68941;BME280;55982;51.476;7.552;2023-02-18T05:16:04;100057.41;;;10.14;100.00
68941;BME280;55982;51.476;7.552;2023-02-18T05:18:29;100048.72;;;10.12;100.00
68941;BME280;55982;51.476;7.552;2023-02-18T05:20:54;100055.66;;;10.13;100.00
68941;BME280;55982;51.476;7.552;2023-02-18T05:23:19;100044.38;;;10.11;100.00
68941;BME280;55982;51.476;7.552;2023-02-18T05:25:45;100047.06;;;10.08;100.00
68941;BME280;55982;51.476;7.552;2023-02-18T05:28:10;100039.28;;;10.05;100.00
68941;BME280;55982;51.476;7.552;2023-02-18T05:30:36;100041.06;;;10.04;100.00
68941;BME280;55982;51.476;7.552;2023-02-18T05:33:01;100019.25;;;10.05;100.00
68941;BME280;55982;51.476;7.552;2023-02-18T05:35:26;100036.69;;;10.05;100.00
68941;BME280;55982;51.476;7.552;2023-02-18T05:37:51;100032.41;;;10.02;100.00
68941;BME280;55982;51.476;7.552;2023-02-18T05:40:16;100022.88;;;10.00;100.00
68941;BME280;55982;51.476;7.552;2023-02-18T05:42:42;100021.09;;;10.02;100.00
68941;BME280;55982;51.476;7.552;2023-02-18T05:45:07;100004.56;;;10.01;100.00
68941;BME280;55982;51.476;7.552;2023-02-18T05:47:32;100017.66;;;10.00;100.00
68941;BME280;55982;51.476;7.552;2023-02-18T05:49:58;100005.47;;;9.99;100.00
68941;BME280;55982;51.476;7.552;2023-02-18T05:52:23;99992.41;;;9.99;100.00
68941;BME280;55982;51.476;7.552;2023-02-18T05:54:48;99977.66;;;9.98;100.00
68941;BME280;55982;51.476;7.552;2023-02-18T05:57:14;99973.34;;;9.97;100.00
68941;BME280;55982;51.476;7.552;2023-02-18T05:59:40;99972.47;;;9.96;100.00
68941;BME280;55982;51.476;7.552;2023-02-18T06:02:05;99974.22;;;9.96;100.00
68941;BME280;55982;51.476;7.552;2023-02-18T06:04:30;99972.53;;;9.95;100.00
68941;BME280;55982;51.476;7.552;2023-02-18T06:06:56;99963.88;;;9.93;100.00
68941;BME280;55982;51.476;7.552;2023-02-18T06:09:21;99976.94;;;9.91;100.00
68941;BME280;55982;51.476;7.552;2023-02-18T06:11:46;99965.69;;;9.89;100.00
68941;BME280;55982;51.476;7.552;2023-02-18T06:14:11;99972.59;;;9.92;100.00
68941;BME280;55982;51.476;7.552;2023-02-18T06:16:37;99965.69;;;9.89;100.00
68941;BME280;55982;51.476;7.552;2023-02-18T06:19:02;99967.38;;;9.92;100.00
68941;BME280;55982;51.476;7.552;2023-02-18T06:21:28;99967.38;;;9.92;100.00
68941;BME280;55982;51.476;7.552;2023-02-18T06:23:53;99954.34;;;9.90;100.00
68941;BME280;55982;51.476;7.552;2023-02-18T06:26:18;99951.69;;;9.92;100.00
68941;BME280;55982;51.476;7.552;2023-02-18T06:28:44;99947.38;;;9.89;100.00
68941;BME280;55982;51.476;7.552;2023-02-18T06:31:09;99941.19;;;9.93;100.00
68941;BME280;55982;51.476;7.552;2023-02-18T06:33:34;99941.22;;;9.92;100.00
68941;BME280;55982;51.476;7.552;2023-02-18T06:36:01;99950.00;;;9.91;100.00
68941;BME280;55982;51.476;7.552;2023-02-18T06:38:26;99945.59;;;9.91;100.00
68941;BME280;55982;51.476;7.552;2023-02-18T06:40:52;99952.59;;;9.91;100.00
68941;BME280;55982;51.476;7.552;2023-02-18T06:43:18;99948.25;;;9.90;100.00
68941;BME280;55982;51.476;7.552;2023-02-18T06:45:43;99957.00;;;9.89;100.00
68941;BME280;55982;51.476;7.552;2023-02-18T06:48:08;99950.00;;;9.91;100.00
68941;BME280;55982;51.476;7.552;2023-02-18T06:50:34;99956.16;;;9.88;100.00
68941;BME280;55982;51.476;7.552;2023-02-18T06:52:59;99950.00;;;9.89;100.00
68941;BME280;55982;51.476;7.552;2023-02-18T06:55:24;99955.28;;;9.88;100.00
68941;BME280;55982;51.476;7.552;2023-02-18T06:57:50;99961.47;;;9.85;100.00
68941;BME280;55982;51.476;7.552;2023-02-18T07:00:15;99964.88;;;9.87;100.00
68941;BME280;55982;51.476;7.552;2023-02-18T07:02:40;99955.28;;;9.88;100.00
68941;BME280;55982;51.476;7.552;2023-02-18T07:05:06;99951.78;;;9.89;100.00
68941;BME280;55982;51.476;7.552;2023-02-18T07:07:31;99957.00;;;9.89;100.00
68941;BME280;55982;51.476;7.552;2023-02-18T07:09:56;99950.06;;;9.88;100.00
68941;BME280;55982;51.476;7.552;2023-02-18T07:12:21;99942.16;;;9.89;100.00
68941;BME280;55982;51.476;7.552;2023-02-18T07:14:47;99939.59;;;9.88;100.00
68941;BME280;55982;51.476;7.552;2023-02-18T07:17:12;99948.34;;;9.87;100.00
68941;BME280;55982;51.476;7.552;2023-02-18T07:19:38;99944.06;;;9.84;100.00
68941;BME280;55982;51.476;7.552;2023-02-18T07:22:03;99940.47;;;9.88;100.00
68941;BME280;55982;51.476;7.552;2023-02-18T07:24:28;99954.41;;;9.87;100.00
68941;BME280;55982;51.476;7.552;2023-02-18T07:26:53;99939.59;;;9.88;100.00
68941;BME280;55982;51.476;7.552;2023-02-18T07:29:19;99948.34;;;9.87;100.00
68941;BME280;55982;51.476;7.552;2023-02-18T07:31:44;99961.38;;;9.88;100.00
68941;BME280;55982;51.476;7.552;2023-02-18T07:34:09;99953.59;;;9.87;100.00
68941;BME280;55982;51.476;7.552;2023-02-18T07:36:34;99964.03;;;9.87;100.00
68941;BME280;55982;51.476;7.552;2023-02-18T07:39:00;99955.28;;;9.88;100.00
68941;BME280;55982;51.476;7.552;2023-02-18T07:41:25;99970.97;;;9.88;100.00
68941;BME280;55982;51.476;7.552;2023-02-18T07:43:50;99970.09;;;9.87;100.00
68941;BME280;55982;51.476;7.552;2023-02-18T07:46:16;99970.13;;;9.86;100.00
68941;BME280;55982;51.476;7.552;2023-02-18T07:48:41;99962.31;;;9.86;100.00
68941;BME280;55982;51.476;7.552;2023-02-18T07:51:07;99975.47;;;9.83;100.00
68941;BME280;55982;51.476;7.552;2023-02-18T07:53:33;99971.16;;;9.80;100.00
68941;BME280;55982;51.476;7.552;2023-02-18T07:55:59;99978.16;;;9.80;100.00
68941;BME280;55982;51.476;7.552;2023-02-18T07:58:25;99969.50;;;9.78;100.00
68941;BME280;55982;51.476;7.552;2023-02-18T08:00:52;99972.16;;;9.76;100.00
68941;BME280;55982;51.476;7.552;2023-02-18T08:03:18;99984.38;;;9.76;100.00
68941;BME280;55982;51.476;7.552;2023-02-18T08:05:46;99987.00;;;9.76;100.00
68941;BME280;55982;51.476;7.552;2023-02-18T08:08:12;99983.47;;;9.77;100.00
68941;BME280;55982;51.476;7.552;2023-02-18T08:10:38;99962.56;;;9.77;100.00
68941;BME280;55982;51.476;7.552;2023-02-18T08:13:03;99986.91;;;9.79;100.00
68941;BME280;55982;51.476;7.552;2023-02-18T08:15:28;99986.78;;;9.83;100.00
68941;BME280;55982;51.476;7.552;2023-02-18T08:17:53;99986.78;;;9.82;100.00
68941;BME280;55982;51.476;7.552;2023-02-18T08:20:19;99989.47;;;9.80;100.00
68941;BME280;55982;51.476;7.552;2023-02-18T08:22:44;99985.97;;;9.80;100.00
68941;BME280;55982;51.476;7.552;2023-02-18T08:25:09;100003.38;;;9.81;100.00
68941;BME280;55982;51.476;7.552;2023-02-18T08:27:34;99991.19;;;9.81;100.00
68941;BME280;55982;51.476;7.552;2023-02-18T08:29:59;100000.69;;;9.84;100.00
68941;BME280;55982;51.476;7.552;2023-02-18T08:32:28;100002.41;;;9.85;100.00
68941;BME280;55982;51.476;7.552;2023-02-18T08:34:54;99997.94;;;9.88;100.00
68941;BME280;55982;51.476;7.552;2023-02-18T08:37:19;99993.50;;;9.92;100.00
68941;BME280;55982;51.476;7.552;2023-02-18T08:39:44;99991.69;;;9.94;100.00
68941;BME280;55982;51.476;7.552;2023-02-18T08:42:09;99996.88;;;9.95;100.00
68941;BME280;55982;51.476;7.552;2023-02-18T08:44:35;99982.88;;;9.98;100.00
68941;BME280;55982;51.476;7.552;2023-02-18T08:47:00;99994.19;;;9.98;100.00
68941;BME280;55982;51.476;7.552;2023-02-18T08:49:25;99987.94;;;10.04;100.00
68941;BME280;55982;51.476;7.552;2023-02-18T08:51:50;99972.31;;;10.01;100.00
68941;BME280;55982;51.476;7.552;2023-02-18T08:54:16;99984.41;;;10.05;100.00
68941;BME280;55982;51.476;7.552;2023-02-18T08:56:41;99979.28;;;10.02;100.00
68941;BME280;55982;51.476;7.552;2023-02-18T08:59:07;99977.81;;;9.92;100.00
68941;BME280;55982;51.476;7.552;2023-02-18T09:01:32;99973.50;;;9.91;100.00
68941;BME280;55982;51.476;7.552;2023-02-18T09:03:57;99974.22;;;9.96;100.00
68941;BME280;55982;51.476;7.552;2023-02-18T09:06:22;99963.88;;;9.93;100.00
68941;BME280;55982;51.476;7.552;2023-02-18T09:08:48;99974.66;;;9.81;100.00
68941;BME280;55982;51.476;7.552;2023-02-18T09:11:13;99964.38;;;9.75;100.00
68941;BME280;55982;51.476;7.552;2023-02-18T09:13:39;99961.09;;;9.67;100.00
68941;BME280;55982;51.476;7.552;2023-02-18T09:16:09;99947.47;;;9.56;100.00
68941;BME280;55982;51.476;7.552;2023-02-18T09:18:35;99964.78;;;9.60;100.00
68941;BME280;55982;51.476;7.552;2023-02-18T09:21:00;99976.88;;;9.64;100.00
68941;BME280;55982;51.476;7.552;2023-02-18T09:23:27;99966.47;;;9.61;100.00
68941;BME280;55982;51.476;7.552;2023-02-18T09:25:52;99964.84;;;9.57;100.00
68941;BME280;55982;51.476;7.552;2023-02-18T09:28:18;99957.28;;;9.48;100.00
68941;BME280;55982;51.476;7.552;2023-02-18T09:30:43;99966.75;;;9.52;100.00
68941;BME280;55982;51.476;7.552;2023-02-18T09:33:08;99973.69;;;9.53;100.00
68941;BME280;55982;51.476;7.552;2023-02-18T09:35:37;99991.00;;;9.55;100.00
68941;BME280;55982;51.476;7.552;2023-02-18T09:38:02;99977.19;;;9.52;100.00
68941;BME280;55982;51.476;7.552;2023-02-18T09:40:28;99977.28;;;9.49;100.00
68941;BME280;55982;51.476;7.552;2023-02-18T09:42:56;99977.28;;;9.49;100.00
68941;BME280;55982;51.476;7.552;2023-02-18T09:45:22;99972.81;;;9.52;100.00
68941;BME280;55982;51.476;7.552;2023-02-18T09:47:48;99982.56;;;9.46;100.00
68941;BME280;55982;51.476;7.552;2023-02-18T09:52:42;99973.59;;;9.56;100.00
68941;BME280;55982;51.476;7.552;2023-02-18T09:57:49;99947.22;;;9.65;100.00
68941;BME280;55982;51.476;7.552;2023-02-18T10:00:27;99940.38;;;9.61;100.00
68941;BME280;55982;51.476;7.552;2023-02-18T10:03:15;99951.69;;;9.61;100.00
68941;BME280;55982;51.476;7.552;2023-02-18T10:05:40;99959.56;;;9.60;100.00
68941;BME280;55982;51.476;7.552;2023-02-18T10:08:06;99952.00;;;9.49;100.00
68941;BME280;55982;51.476;7.552;2023-02-18T10:10:43;99940.72;;;9.49;100.00
68941;BME280;55982;51.476;7.552;2023-02-18T10:13:13;99968.69;;;9.44;100.00
68941;BME280;55982;51.476;7.552;2023-02-18T10:15:39;99971.50;;;9.36;100.00
68941;BME280;55982;51.476;7.552;2023-02-18T10:18:05;99951.53;;;9.34;100.00
68941;BME280;55982;51.476;7.552;2023-02-18T10:20:39;99968.22;;;9.30;100.00
68941;BME280;55982;51.476;7.552;2023-02-18T10:23:05;99958.66;;;9.29;100.00
68941;BME280;55982;51.476;7.552;2023-02-18T10:25:31;99966.47;;;9.29;100.00
68941;BME280;55982;51.476;7.552;2023-02-18T10:27:58;99974.97;;;9.37;100.00
68941;BME280;55982;51.476;7.552;2023-02-18T10:30:34;99956.53;;;9.43;100.00
68941;BME280;55982;51.476;7.552;2023-02-18T10:33:22;99968.84;;;9.38;100.00
68941;BME280;55982;51.476;7.552;2023-02-18T10:49:00;99977.66;;;9.34;100.00
68941;BME280;55982;51.476;7.552;2023-02-18T10:51:29;99976.91;;;9.29;100.00
68941;BME280;55982;51.476;7.552;2023-02-18T10:53:56;99984.75;;;9.29;100.00
68941;BME280;55982;51.476;7.552;2023-02-18T10:58:52;100002.06;;;9.33;100.00
68941;BME280;55982;51.476;7.552;2023-02-18T11:01:24;99989.81;;;9.35;100.00
68941;BME280;55982;51.476;7.552;2023-02-18T11:03:50;100004.50;;;9.39;100.00
68941;BME280;55982;51.476;7.552;2023-02-18T11:06:32;99992.47;;;9.33;100.00
68941;BME280;55982;51.476;7.552;2023-02-18T11:09:01;100000.41;;;9.29;100.00
68941;BME280;55982;51.476;7.552;2023-02-18T11:13:59;100011.88;;;9.23;100.00
68941;BME280;55982;51.476;7.552;2023-02-18T11:16:42;100008.44;;;9.21;100.00
68941;BME280;55982;51.476;7.552;2023-02-18T11:21:51;100013.81;;;9.15;100.00
68941;BME280;55982;51.476;7.552;2023-02-18T11:24:30;100011.25;;;9.13;100.00
68941;BME280;55982;51.476;7.552;2023-02-18T11:26:55;100002.34;;;9.20;100.00
68941;BME280;55982;51.476;7.552;2023-02-18T11:29:21;100009.44;;;9.15;100.00
68941;BME280;55982;51.476;7.552;2023-02-18T11:31:51;99997.13;;;9.20;100.00
68941;BME280;55982;51.476;7.552;2023-02-18T11:34:19;100012.72;;;9.23;100.00
68941;BME280;55982;51.476;7.552;2023-02-18T11:36:44;100004.13;;;9.18;100.00
68941;BME280;55982;51.476;7.552;2023-02-18T11:39:16;99995.50;;;9.16;100.00
68941;BME280;55982;51.476;7.552;2023-02-18T11:41:43;99986.63;;;9.23;100.00
68941;BME280;55982;51.476;7.552;2023-02-18T11:44:20;99997.13;;;9.20;100.00
68941;BME280;55982;51.476;7.552;2023-02-18T11:46:57;99994.72;;;9.13;100.00
68941;BME280;55982;51.476;7.552;2023-02-18T11:49:23;100004.31;;;9.11;100.00
68941;BME280;55982;51.476;7.552;2023-02-18T11:51:49;99998.09;;;9.18;100.00
68941;BME280;55982;51.476;7.552;2023-02-18T11:56:54;99995.50;;;9.16;100.00
68941;BME280;55982;51.476;7.552;2023-02-18T11:59:20;99996.28;;;9.20;100.00
68941;BME280;55982;51.476;7.552;2023-02-18T12:01:46;99997.13;;;9.22;100.00
68941;BME280;55982;51.476;7.552;2023-02-18T12:04:15;100010.94;;;9.26;100.00
68941;BME280;55982;51.476;7.552;2023-02-18T12:06:48;100007.50;;;9.23;100.00
68941;BME280;55982;51.476;7.552;2023-02-18T12:11:43;100007.38;;;9.30;100.00
68941;BME280;55982;51.476;7.552;2023-02-18T12:14:18;99995.81;;;9.38;100.00
68941;BME280;55982;51.476;7.552;2023-02-18T12:27:21;100003.53;;;9.43;100.00
68941;BME280;55982;51.476;7.552;2023-02-18T12:30:31;100002.69;;;9.42;100.00
68941;BME280;55982;51.476;7.552;2023-02-18T12:32:45;99993.31;;;9.34;100.00
68941;BME280;55982;51.476;7.552;2023-02-18T12:35:18;100006.34;;;9.35;100.00
68941;BME280;55982;51.476;7.552;2023-02-18T13:03:20;100019.41;;;9.34;100.00
68941;BME280;55982;51.476;7.552;2023-02-18T13:10:53;100001.91;;;9.39;100.00
68941;BME280;55982;51.476;7.552;2023-02-18T13:13:24;100007.94;;;9.41;100.00
68941;BME280;55982;51.476;7.552;2023-02-18T13:16:12;100000.13;;;9.41;100.00
68941;BME280;55982;51.476;7.552;2023-02-18T13:18:37;100019.16;;;9.44;100.00
68941;BME280;55982;51.476;7.552;2023-02-18T13:21:04;100010.47;;;9.44;100.00
68941;BME280;55982;51.476;7.552;2023-02-18T13:23:43;100015.63;;;9.47;100.00
68941;BME280;55982;51.476;7.552;2023-02-18T13:26:12;100019.22;;;9.43;100.00
68941;BME280;55982;51.476;7.552;2023-02-18T13:31:30;100012.19;;;9.45;100.00
68941;BME280;55982;51.476;7.552;2023-02-18T13:33:54;100001.81;;;9.42;100.00
68941;BME280;55982;51.476;7.552;2023-02-18T13:36:32;99991.38;;;9.42;100.00
68941;BME280;55982;51.476;7.552;2023-02-18T13:39:07;100006.97;;;9.45;100.00
68941;BME280;55982;51.476;7.552;2023-02-18T13:41:34;99994.66;;;9.50;100.00
68941;BME280;55982;51.476;7.552;2023-02-18T13:44:00;99988.19;;;9.63;100.00
68941;BME280;55982;51.476;7.552;2023-02-18T13:46:25;99993.47;;;9.61;100.00
68941;BME280;55982;51.476;7.552;2023-02-18T13:48:53;99994.41;;;9.59;100.00
68941;BME280;55982;51.476;7.552;2023-02-18T13:54:00;99992.53;;;9.64;100.00
68941;BME280;55982;51.476;7.552;2023-02-18T13:56:27;99992.50;;;9.65;100.00
68941;BME280;55982;51.476;7.552;2023-02-18T14:01:45;99987.31;;;9.64;100.00
68941;BME280;55982;51.476;7.552;2023-02-18T14:09:40;99989.09;;;9.62;100.00
68941;BME280;55982;51.476;7.552;2023-02-18T14:12:16;99994.41;;;9.59;100.00
68941;BME280;55982;51.476;7.552;2023-02-18T14:14:42;99995.34;;;9.56;100.00
68941;BME280;55982;51.476;7.552;2023-02-18T14:17:23;99990.09;;;9.58;100.00
68941;BME280;55982;51.476;7.552;2023-02-18T14:25:03;99997.00;;;9.60;100.00
68941;BME280;55982;51.476;7.552;2023-02-18T14:27:28;99994.25;;;9.65;100.00
68941;BME280;55982;51.476;7.552;2023-02-18T14:29:53;99994.19;;;9.68;100.00
68941;BME280;55982;51.476;7.552;2023-02-18T14:32:19;100001.09;;;9.69;100.00
68941;BME280;55982;51.476;7.552;2023-02-18T14:35:01;99988.84;;;9.71;100.00
68941;BME280;55982;51.476;7.552;2023-02-18T14:37:35;99994.06;;;9.71;100.00
68941;BME280;55982;51.476;7.552;2023-02-18T14:47:59;100003.81;;;9.66;100.00
68941;BME280;55982;51.476;7.552;2023-02-18T14:50:29;100005.47;;;9.68;100.00
68941;BME280;55982;51.476;7.552;2023-02-18T14:52:56;100007.13;;;9.71;100.00
68941;BME280;55982;51.476;7.552;2023-02-18T14:55:26;100004.53;;;9.71;100.00
68941;BME280;55982;51.476;7.552;2023-02-18T14:57:53;99999.34;;;9.69;100.00
68941;BME280;55982;51.476;7.552;2023-02-18T15:00:21;100010.56;;;9.73;100.00
68941;BME280;55982;51.476;7.552;2023-02-18T15:02:53;100009.75;;;9.71;100.00
68941;BME280;55982;51.476;7.552;2023-02-18T15:05:21;100014.97;;;9.71;100.00